WEATHER DATA

YESTERDAY
Time Temp. Dewp. Hum. Bar. 1h Prec. 24h Prec.
00:08 5.1 -0.5 67 1008.9 0.0000 0.0000
00:18 4.8 -0.7 67 1009 0.0000 0.0000
00:28 4.5 -0.8 68 1009 0.0000 0.0000
00:38 4.2 -0.9 69 1009 0.0000 0.0000
00:48 3.9 -0.9 70 1009 0.0000 0.0000
00:59 3.6 -1 71 1008.9 0.0000 0.0000
01:08 3.4 -1 72 1009 0.0000 0.0000
01:18 3.2 -1.2 72 1008.9 0.0000 0.0000
01:29 3 -1.4 72 1009 0.0000 0.0000
01:39 2.7 -1.6 72 1009 0.0000 0.0000
01:49 2.4 -1.7 73 1009 0.0000 0.0000
01:58 2.2 -1.9 73 1009 0.0000 0.0000
02:09 2.1 -1.8 74 1009 0.0000 0.0000
02:19 1.9 -1.8 75 1009.1 0.0000 0.0000
02:29 1.8 -1.9 75 1009.2 0.0000 0.0000
02:39 1.6 -2.1 75 1009.2 0.0000 0.0000
02:49 1.6 -1.9 76 1009.4 0.0000 0.0000
02:59 1.4 -2.1 76 1009.4 0.0000 0.0000
03:09 1.3 -2.2 76 1009.4 0.0000 0.0000
03:20 1.2 -2.1 77 1009.4 0.0000 0.0000
03:29 1 -2.3 77 1009.4 0.0000 0.0000
03:39 1 -2.3 77 1009.4 0.0000 0.0000
03:50 1 -2.1 78 1009.4 0.0000 0.0000
04:00 1 -2.1 78 1009.6 0.0000 0.0000
04:10 1 -2.1 78 1009.6 0.0000 0.0000
04:19 1 -2.1 78 1009.5 0.0000 0.0000
04:30 1 -2 79 1009.5 0.0000 0.0000
04:40 1.1 -1.9 79 1009.5 0.0000 0.0000
04:50 1.3 -1.6 80 1009.6 0.0000 0.0000
05:00 1.5 -1.2 81 1009.5 0.0000 0.0000
05:10 1.6 -1.3 80 1009.5 0.0000 0.0000
05:20 1.9 -1 80 1009.5 0.0000 0.0000
05:30 2.2 -0.8 80 1009.6 0.0000 0.0000
05:41 2.5 -0.5 80 1009.7 0.0000 0.0000
05:50 2.9 -0.2 80 1009.7 0.0000 0.0000
06:00 3.2 0.1 80 1009.6 0.0000 0.0000
06:11 3.5 0.2 79 1009.5 0.0000 0.0000
06:21 3.7 0.4 79 1009.5 0.0000 0.0000
06:31 4 0.7 79 1009.5 0.0000 0.0000
06:40 4.2 0.7 78 1009.7 0.0000 0.0000
06:51 4.5 1 78 1009.7 0.0000 0.0000
07:01 4.8 1.3 78 1009.7 0.0000 0.0000
07:11 5.1 1.4 77 1009.7 0.0000 0.0000
07:21 5.4 1.7 77 1009.7 0.0000 0.0000
07:31 5.8 2.1 77 1009.7 0.0000 0.0000
07:41 6.2 2.3 76 1009.7 0.0000 0.0000
07:51 6.7 2.6 75 1009.7 0.0000 0.0000
08:02 7.3 2.8 73 1009.7 0.0000 0.0000
08:12 7.9 3.2 72 1009.8 0.0000 0.0000
08:21 8.5 3.3 70 1009.7 0.0000 0.0000
08:32 9.2 3.6 68 1009.7 0.0000 0.0000
08:42 9.7 3.7 66 1009.6 0.0000 0.0000
08:52 10.3 4 65 1009.7 0.0000 0.0000
09:02 10.8 4 63 1009.7 0.0000 0.0000
09:12 11.5 4.2 61 1009.6 0.0000 0.0000
09:22 12 4 58 1009.6 0.0000 0.0000
09:32 12.6 4.3 57 1009.5 0.0000 0.0000
09:42 13.1 4.5 56 1009.5 0.0000 0.0000
09:53 13.8 4.7 54 1009.4 0.0000 0.0000
10:02 14.3 4.6 52 1009.3 0.0000 0.0000
10:12 14.8 4.8 51 1009.2 0.0000 0.0000
10:23 15.4 3.5 45 1009.2 0.0000 0.0000
10:33 15.9 3 42 1009 0.0000 0.0000
10:42 16.3 2 38 1009 0.0000 0.0000
10:53 16.7 2 37 1009 0.0000 0.0000
11:03 17 3 39 1009 0.0000 0.0000
11:13 17.4 3 38 1008.9 0.0000 0.0000
11:23 17.5 1.9 35 1009 0.0000 0.0000
11:33 17.5 1.5 34 1008.9 0.0000 0.0000
11:43 17.4 1 33 1008.8 0.0000 0.0000
11:53 17.5 -0.2 30 1008.8 0.0000 0.0000
12:04 17.6 0.7 32 1008.7 0.0000 0.0000
12:14 17.9 -0.7 28 1008.7 0.0000 0.0000
12:23 18.1 -1 27 1008.7 0.0000 0.0000
12:33 18.3 -0.9 27 1008.7 0.0000 0.0000
12:44 18.2 -1.9 25 1008.7 0.0000 0.0000
12:54 18.1 -1.5 26 1008.6 0.0000 0.0000
13:04 18.3 -2.3 24 1008.5 0.0000 0.0000
13:14 18.3 -1.8 25 1008.5 0.0000 0.0000
13:24 18.4 -2.2 24 1008.5 0.0000 0.0000
13:34 18.5 -2.1 24 1008.4 0.0000 0.0000
13:44 18.5 -2.1 24 1008.4 0.0000 0.0000
13:54 18.6 -1.1 26 1008.5 0.0000 0.0000
14:04 18.6 -1.1 26 1008.5 0.0000 0.0000
14:14 18.6 -1.1 26 1008.4 0.0000 0.0000
14:25 18.7 -2 24 1008.5 0.0000 0.0000
14:35 18.6 -1.6 25 1008.5 0.0000 0.0000
14:44 18.4 -1.7 25 1008.6 0.0000 0.0000
14:54 18.4 -1.7 25 1008.6 0.0000 0.0000
15:05 18.3 -2.3 24 1008.6 0.0000 0.0000
15:15 18.1 -2 25 1008.6 0.0000 0.0000
15:25 18 -2 25 1008.6 0.0000 0.0000
15:35 17.8 -2.2 25 1008.5 0.0000 0.0000
15:45 17.4 -3 24 1008.6 0.0000 0.0000
15:55 17.1 -2.7 25 1008.6 0.0000 0.0000
16:05 17 -1.9 27 1008.4 0.0000 0.0000
16:16 16.8 -2.5 26 1008.5 0.0000 0.0000
16:25 16.7 -1.7 28 1008.6 0.0000 0.0000
16:35 16.5 -2.7 26 1008.6 0.0000 0.0000
16:46 16.2 -2.5 27 1008.5 0.0000 0.0000
16:56 15.9 -3.6 25 1008.5 0.0000 0.0000
17:06 15.8 -3.7 25 1008.5 0.0000 0.0000
17:15 15.6 -3.8 25 1008.6 0.0000 0.0000
17:26 15.4 -4 25 1008.5 0.0000 0.0000
17:36 15.3 -4.1 25 1008.4 0.0000 0.0000
17:46 15.2 -4.1 25 1008.4 0.0000 0.0000
17:56 15.1 -4.2 25 1008.4 0.0000 0.0000
18:06 15 -4.3 25 1008.4 0.0000 0.0000
18:16 14.9 -4.4 25 1008.4 0.0000 0.0000
18:26 14.9 -4.4 25 1008.4 0.0000 0.0000
18:37 14.7 -3.6 27 1008.3 0.0000 0.0000
18:47 14.6 -3.7 27 1008.4 0.0000 0.0000
18:56 14.4 -3.4 28 1008.4 0.0000 0.0000
19:07 14.3 -3.1 29 1008.3 0.0000 0.0000
19:17 14.1 -2.8 30 1008.3 0.0000 0.0000
19:27 13.9 -2.6 31 1008.4 0.0000 0.0000
19:37 13.5 -2.9 31 1008.4 0.0000 0.0000
19:48 13.5 -2.5 32 1008.5 0.0000 0.0000
19:57 13.1 -2.5 33 1008.4 0.0000 0.0000
20:07 12.9 -2.3 34 1008.5 0.0000 0.0000
20:17 12.7 -2.4 34 1008.6 0.0000 0.0000
20:28 12.4 -2.7 34 1008.5 0.0000 0.0000
20:38 12.2 -2.5 35 1008.5 0.0000 0.0000
20:47 11.9 -2.4 36 1008.5 0.0000 0.0000
20:58 11.6 -2.3 37 1008.6 0.0000 0.0000
21:08 11.2 -2.6 37 1008.6 0.0000 0.0000
21:18 10.8 -2.6 38 1008.8 0.0000 0.0000
21:28 10.5 -2.8 38 1008.8 0.0000 0.0000
21:38 10.3 -2.7 39 1008.9 0.0000 0.0000
21:48 10 -2.9 39 1008.9 0.0000 0.0000
21:58 9.7 -2.9 40 1009 0.0000 0.0000
22:09 9.5 -2.7 41 1009 0.0000 0.0000
22:18 9.3 -2.9 41 1009 0.0000 0.0000
22:28 9 -2.8 42 1009 0.0000 0.0000
22:38 8.7 -2.8 43 1009 0.0000 0.0000
22:49 8.5 -3 43 1009 0.0000 0.0000
22:59 8.1 -3 44 1009 0.0000 0.0000
23:08 7.7 -2.8 46 1009 0.0000 0.0000
23:19 7.3 -2.9 47 1008.9 0.0000 0.0000
23:29 6.9 -3 48 1009 0.0000 0.0000
23:39 6.5 -2.8 50 1009 0.0000 0.0000
23:49 6.2 -2.8 51 1009 0.0000 0.0000

DAY STATISTIC

2022-05-24
TEMPERATURE
AVERAGE
10.4
HIGH
18.7
14:25
LOW
1.0
03:29
PRESSURE
AVERAGE
1009.0
HIGH
1009.8
08:12
LOW
1008.3
18:37
DEWPOINT
AVERAGE
-1.0
HIGH
4.8
10:12
LOW
-4.4
18:16
HUMIDITY
AVERAGE
49
HIGH
81
05:00
LOW
24
13:04
PRECIPITATION
RAIN HOUR
0.0
RAIN DAY
0.0
TEMPERATURE (°C)
LOW
1.0
HIGH
18.7
AVERAGE
10.4
PRESSURE (hpa)
LOW
1008.3
HIGH
1009.8
AVERAGE
1009.0
DEVICE